Minerva Libra — SVAA7 — position and weather

sailwx.info

Track history (hours):
 
Tides and Currents Weather Stations Pressure Air Temp Water Temp Dewpoint Dewpoint Depression Visibility Wind Speed Wind Dir Waves Ship Positions

Minerva Libra

Last reported at 2016-Feb-10 21:23 UTC. Time now 2016-Feb-10 22:07 UTC.
Position N 59°60' E 026°21'.

Length 250 m; draft 14.5 m.

Type: Tanker. MMSI: 240766000.

Date/timePositionNaut miles runAvg speedWind from/ knotsBaromVisibWave heightAir tempDewpointWater temp
2016-Feb-10 21:23N 59°60' E 026°21'1012.1
2016-Feb-10 20:33N 60°01' E 026°40'3511.3
2016-Feb-10 17:25N 60°12' E 027°48'1011.8
2016-Feb-10 16:32N 60°09' E 028°08'1211.9
2016-Feb-10 15:33N 60°04' E 028°29'8 8.0
2016-Feb-10 14:33N 59°56' E 028°35'1110.9
2016-Feb-10 13:33N 59°47' E 028°24'4 4.0
2016-Feb-10 12:31N 59°43' E 028°26'0 0.0
2016-Feb-10 11:22N 59°43' E 028°26'0 0.0
2016-Feb-10 10:22N 59°43' E 028°26'0 0.0
2016-Feb-10 09:25N 59°43' E 028°26'0 0.0
2016-Feb-10 08:25N 59°43' E 028°26'0 0.0
2016-Feb-10 07:25N 59°43' E 028°26'0 0.0
2016-Feb-10 06:25N 59°43' E 028°26'0 0.0
2016-Feb-10 05:28N 59°43' E 028°26'0 0.0
2016-Feb-10 04:28N 59°43' E 028°26'0 0.0
2016-Feb-10 03:28N 59°43' E 028°26'0 0.0
2016-Feb-10 02:31N 59°43' E 028°26'0 0.0
2016-Feb-10 01:16N 59°43' E 028°26'0 0.0
2016-Feb-10 00:31N 59°43' E 028°26'0 0.0
2016-Feb-09 23:31N 59°43' E 028°26'0 0.0
2016-Feb-09 22:31N 59°43' E 028°26'0 0.0
2016-Feb-09 21:31N 59°43' E 028°26'0 0.0
2016-Feb-09 20:22N 59°43' E 028°26'0 0.0
2016-Feb-09 19:22N 59°43' E 028°26'0 0.0
2016-Feb-09 18:25N 59°43' E 028°26'0 0.0
2016-Feb-09 17:25N 59°43' E 028°26'0 0.0
2016-Feb-09 16:25N 59°43' E 028°26'0 0.0
2016-Feb-09 15:28N 59°43' E 028°26'0 0.0
2016-Feb-09 13:13N 59°43' E 028°26'0 0.0
2016-Feb-09 12:31N 59°43' E 028°26'0 0.2
2016-Feb-09 11:33N 59°42' E 028°26'2 2.4
2016-Feb-09 10:34N 59°45' E 028°24'9 8.6
2016-Feb-09 09:33N 59°53' E 028°29'9 9.4
2016-Feb-09 08:34N 60°01' E 028°36'1313.3
2016-Feb-09 07:34N 60°08' E 028°13'1514.6
2016-Feb-09 06:32N 60°10' E 027°43'1915.5
2016-Feb-09 05:17N 60°00' E 027°10'1114.2
2016-Feb-09 04:33N 59°59' E 026°49'1514.9
2016-Feb-09 03:33N 59°56' E 026°20'4815.4
2016-Feb-09 00:25N 59°45' E 024°47'29714.9
2016-Feb-08 04:32N 56°09' E 018°24'9715.3
2016-Feb-07 22:11N 55°38' E 015°39'1115.3
2016-Feb-07 21:27N 55°35' E 015°20'1415.4
2016-Feb-07 20:33N 55°29' E 014°58'1515.3
2016-Feb-07 19:33N 55°21' E 014°35'1615.7
2016-Feb-07 18:33N 55°09' E 014°18'1514.8
2016-Feb-07 17:33N 54°60' E 013°58'1616.2
2016-Feb-07 16:33N 54°55' E 013°31'2914.4
2016-Feb-07 14:33N 54°44' E 012°44'2114.9
2016-Feb-07 13:08N 54°32' E 012°15'712.5
2016-Feb-07 12:33N 54°25' E 012°10'1514.7
2016-Feb-07 11:33N 54°25' E 011°44'1514.7
2016-Feb-07 10:33N 54°32' E 011°21'1413.9
2016-Feb-07 09:33N 54°39' E 011°01'9 9.0
2016-Feb-07 08:33N 54°45' E 010°49'1312.6
2016-Feb-07 07:33N 54°57' E 010°56'1313.2
2016-Feb-07 06:33N 55°09' E 011°03'1312.7
2016-Feb-07 05:33N 55°22' E 011°02'7511.9
2016-Feb-06 23:14N 56°35' E 011°31'914.0
2016-Feb-06 22:33N 56°42' E 011°44'1212.4
2016-Feb-06 21:33N 56°54' E 011°47'1514.7
2016-Feb-06 20:34N 57°08' E 011°38'1414.5
2016-Feb-06 19:33N 57°21' E 011°29'1414.4
2016-Feb-06 18:34N 57°33' E 011°15'1414.4
2016-Feb-06 17:34N 57°47' E 011°09'1414.2
2016-Feb-06 16:34N 58°02' E 011°09'1413.5
2016-Feb-06 15:33N 58°15' E 011°09'9 9.2
2016-Feb-06 14:33N 58°20' E 011°24'1 0.6
2016-Feb-06 13:32N 58°21' E 011°24'0 0.0
2016-Feb-06 12:29N 58°21' E 011°24'0 0.0
2016-Feb-06 11:32N 58°21' E 011°24'0 0.0
2016-Feb-06 10:32N 58°21' E 011°24'0 0.0
2016-Feb-06 09:32N 58°21' E 011°24'0 0.0
2016-Feb-06 08:32N 58°21' E 011°24'0 0.0
2016-Feb-06 07:32N 58°21' E 011°24'0 0.0
2016-Feb-06 06:32N 58°21' E 011°24'0 0.0
2016-Feb-06 05:32N 58°21' E 011°24'0 0.0
2016-Feb-06 04:32N 58°21' E 011°24'0 0.0
2016-Feb-06 03:32N 58°21' E 011°24'0 0.0
2016-Feb-06 02:32N 58°21' E 011°24'0 0.0
2016-Feb-06 01:32N 58°21' E 011°24'0 0.0
2016-Feb-06 00:32N 58°21' E 011°24'0 0.0
2016-Feb-05 23:29N 58°21' E 011°24'0 0.0
2016-Feb-05 22:32N 58°21' E 011°24'0 0.0
2016-Feb-05 21:32N 58°21' E 011°24'0 0.0
2016-Feb-05 20:32N 58°21' E 011°24'0 0.0
2016-Feb-05 19:32N 58°21' E 011°24'0 0.0
2016-Feb-05 18:32N 58°21' E 011°24'0 0.0
2016-Feb-05 17:32N 58°21' E 011°24'0 0.0
2016-Feb-05 16:32N 58°21' E 011°24'0 0.0
2016-Feb-05 15:32N 58°21' E 011°24'0 0.0
2016-Feb-05 14:32N 58°21' E 011°24'0 0.0
2016-Feb-05 13:32N 58°21' E 011°24'0 0.0
2016-Feb-05 12:32N 58°21' E 011°24'0 0.0
2016-Feb-05 11:32N 58°21' E 011°24'0 0.3
2016-Feb-05 10:33N 58°21' E 011°24'6 5.8
2016-Feb-05 09:33N 58°17' E 011°16'9 9.3
2016-Feb-05 08:33N 58°09' E 011°06'1211.6
2016-Feb-05 07:33N 57°58' E 010°59'1312.5
2016-Feb-05 06:33N 57°46' E 010°51'1211.6
2016-Feb-05 05:33N 57°38' E 011°06'1313.4
2016-Feb-05 04:33N 57°29' E 011°24'1313.2
2016-Feb-05 03:33N 57°17' E 011°33'1413.5
2016-Feb-05 02:33N 57°04' E 011°41'1413.4
2016-Feb-05 01:33N 56°51' E 011°50'1211.7
2016-Feb-05 00:33N 56°39' E 011°48'8511.8
2016-Feb-04 17:23N 55°19' E 011°03'910.6
2016-Feb-04 16:34N 55°10' E 011°01'1212.4
2016-Feb-04 15:33N 54°58' E 010°57'1211.7
2016-Feb-04 14:34N 54°47' E 010°49'1010.2
2016-Feb-04 13:33N 54°37' E 010°56'1211.5
2016-Feb-04 12:33N 54°34' E 011°16'1212.2
2016-Feb-04 11:34N 54°29' E 011°35'1212.3
2016-Feb-04 10:33N 54°27' E 011°55'1010.2
2016-Feb-04 09:33N 54°29' E 012°13'8 8.3
2016-Feb-04 08:33N 54°37' E 012°17'9 8.6
2016-Feb-04 07:33N 54°41' E 012°29'4511.0
2016-Feb-04 03:27N 54°59' E 013°41'1112.4
2016-Feb-04 02:34N 55°03' E 013°59'1212.0
2016-Feb-04 01:34N 55°12' E 014°14'1312.5
2016-Feb-04 00:33N 55°22' E 014°27'1212.3
2016-Feb-03 23:34N 55°29' E 014°44'1212.3
2016-Feb-03 22:34N 55°34' E 015°04'36211.3
2016-Feb-02 14:30N 59°38' E 023°24'1212.3
2016-Feb-02 13:32N 59°42' E 023°46'8811.0
2016-Feb-02 05:33N 60°01' E 026°36'3611.3
2016-Feb-02 02:22N 60°12' E 027°45'1212.3
2016-Feb-02 01:23N 60°09' E 028°09'1012.3
2016-Feb-02 00:33N 60°04' E 028°27'9 8.9
2016-Feb-01 23:33N 59°56' E 028°35'1010.0
2016-Feb-01 22:33N 59°48' E 028°25'5 5.3
2016-Feb-01 21:32N 59°42' E 028°26'0 0.0
2016-Feb-01 20:20N 59°42' E 028°26'0 0.0
2016-Feb-01 19:32N 59°42' E 028°26'0 0.0
2016-Feb-01 18:32N 59°42' E 028°26'0 0.0
2016-Feb-01 17:20N 59°42' E 028°26'0 0.0
2016-Feb-01 16:26N 59°42' E 028°26'0 0.0
2016-Feb-01 15:26N 59°42' E 028°26'0 0.0
2016-Feb-01 14:26N 59°42' E 028°26'0 0.0
2016-Feb-01 13:29N 59°42' E 028°26'0 0.0
2016-Feb-01 12:29N 59°42' E 028°26'0 0.0
2016-Feb-01 11:29N 59°42' E 028°26'0 0.0
2016-Feb-01 10:32N 59°42' E 028°26'0 0.0
2016-Feb-01 09:32N 59°42' E 028°26'0 0.0
2016-Feb-01 08:29N 59°42' E 028°26'0 0.0
2016-Feb-01 07:32N 59°42' E 028°26'0 0.0
2016-Feb-01 06:32N 59°42' E 028°26'0 0.0
2016-Feb-01 05:32N 59°42' E 028°26'0 0.0
2016-Feb-01 04:32N 59°42' E 028°26'0 0.0
2016-Feb-01 03:23N 59°42' E 028°26'0 0.0
2016-Feb-01 02:26N 59°42' E 028°26'0 0.0
2016-Feb-01 01:26N 59°42' E 028°26'0 0.0
2016-Feb-01 00:26N 59°42' E 028°26'0 0.0
2016-Jan-31 23:29N 59°42' E 028°26'0 0.0
2016-Jan-31 22:29N 59°42' E 028°26'0 0.0
2016-Jan-31 21:29N 59°42' E 028°26'  
Track history (hours):
 
Tides and Currents Weather Stations Pressure Air Temp Water Temp Dewpoint Dewpoint Depression Visibility Wind Speed Wind Dir Waves Ship Positions

Minerva Libra

Last reported at 2016-Feb-10 21:23 UTC. Time now 2016-Feb-10 22:07 UTC.
Position N 59°60' E 026°21'.

Length 250 m; draft 14.5 m.

Type: Tanker. MMSI: 240766000.

Date/timePositionNaut miles runAvg speedWind from/ knotsBaromVisibWave heightAir tempDewpointWater temp
2016-Feb-10 21:23N 59°60' E 026°21'1012.1
2016-Feb-10 20:33N 60°01' E 026°40'3511.3
2016-Feb-10 17:25N 60°12' E 027°48'1011.8
2016-Feb-10 16:32N 60°09' E 028°08'1211.9
2016-Feb-10 15:33N 60°04' E 028°29'8 8.0
2016-Feb-10 14:33N 59°56' E 028°35'1110.9
2016-Feb-10 13:33N 59°47' E 028°24'4 4.0
2016-Feb-10 12:31N 59°43' E 028°26'0 0.0
2016-Feb-10 11:22N 59°43' E 028°26'0 0.0
2016-Feb-10 10:22N 59°43' E 028°26'0 0.0
2016-Feb-10 09:25N 59°43' E 028°26'0 0.0
2016-Feb-10 08:25N 59°43' E 028°26'0 0.0
2016-Feb-10 07:25N 59°43' E 028°26'0 0.0
2016-Feb-10 06:25N 59°43' E 028°26'0 0.0
2016-Feb-10 05:28N 59°43' E 028°26'0 0.0
2016-Feb-10 04:28N 59°43' E 028°26'0 0.0
2016-Feb-10 03:28N 59°43' E 028°26'0 0.0
2016-Feb-10 02:31N 59°43' E 028°26'0 0.0
2016-Feb-10 01:16N 59°43' E 028°26'0 0.0
2016-Feb-10 00:31N 59°43' E 028°26'0 0.0
2016-Feb-09 23:31N 59°43' E 028°26'0 0.0
2016-Feb-09 22:31N 59°43' E 028°26'0 0.0
2016-Feb-09 21:31N 59°43' E 028°26'0 0.0
2016-Feb-09 20:22N 59°43' E 028°26'0 0.0
2016-Feb-09 19:22N 59°43' E 028°26'0 0.0
2016-Feb-09 18:25N 59°43' E 028°26'0 0.0
2016-Feb-09 17:25N 59°43' E 028°26'0 0.0
2016-Feb-09 16:25N 59°43' E 028°26'0 0.0
2016-Feb-09 15:28N 59°43' E 028°26'0 0.0
2016-Feb-09 13:13N 59°43' E 028°26'0 0.0
2016-Feb-09 12:31N 59°43' E 028°26'0 0.2
2016-Feb-09 11:33N 59°42' E 028°26'2 2.4
2016-Feb-09 10:34N 59°45' E 028°24'9 8.6
2016-Feb-09 09:33N 59°53' E 028°29'9 9.4
2016-Feb-09 08:34N 60°01' E 028°36'1313.3
2016-Feb-09 07:34N 60°08' E 028°13'1514.6
2016-Feb-09 06:32N 60°10' E 027°43'1915.5
2016-Feb-09 05:17N 60°00' E 027°10'1114.2
2016-Feb-09 04:33N 59°59' E 026°49'1514.9
2016-Feb-09 03:33N 59°56' E 026°20'4815.4
2016-Feb-09 00:25N 59°45' E 024°47'29714.9
2016-Feb-08 04:32N 56°09' E 018°24'9715.3
2016-Feb-07 22:11N 55°38' E 015°39'1115.3
2016-Feb-07 21:27N 55°35' E 015°20'1415.4
2016-Feb-07 20:33N 55°29' E 014°58'1515.3
2016-Feb-07 19:33N 55°21' E 014°35'1615.7
2016-Feb-07 18:33N 55°09' E 014°18'1514.8
2016-Feb-07 17:33N 54°60' E 013°58'1616.2
2016-Feb-07 16:33N 54°55' E 013°31'2914.4
2016-Feb-07 14:33N 54°44' E 012°44'2114.9
2016-Feb-07 13:08N 54°32' E 012°15'712.5
2016-Feb-07 12:33N 54°25' E 012°10'1514.7
2016-Feb-07 11:33N 54°25' E 011°44'1514.7
2016-Feb-07 10:33N 54°32' E 011°21'1413.9
2016-Feb-07 09:33N 54°39' E 011°01'9 9.0
2016-Feb-07 08:33N 54°45' E 010°49'1312.6
2016-Feb-07 07:33N 54°57' E 010°56'1313.2
2016-Feb-07 06:33N 55°09' E 011°03'1312.7
2016-Feb-07 05:33N 55°22' E 011°02'7511.9
2016-Feb-06 23:14N 56°35' E 011°31'914.0
2016-Feb-06 22:33N 56°42' E 011°44'1212.4
2016-Feb-06 21:33N 56°54' E 011°47'1514.7
2016-Feb-06 20:34N 57°08' E 011°38'1414.5
2016-Feb-06 19:33N 57°21' E 011°29'1414.4
2016-Feb-06 18:34N 57°33' E 011°15'1414.4
2016-Feb-06 17:34N 57°47' E 011°09'1414.2
2016-Feb-06 16:34N 58°02' E 011°09'1413.5
2016-Feb-06 15:33N 58°15' E 011°09'9 9.2
2016-Feb-06 14:33N 58°20' E 011°24'1 0.6
2016-Feb-06 13:32N 58°21' E 011°24'0 0.0
2016-Feb-06 12:29N 58°21' E 011°24'0 0.0
2016-Feb-06 11:32N 58°21' E 011°24'0 0.0
2016-Feb-06 10:32N 58°21' E 011°24'0 0.0
2016-Feb-06 09:32N 58°21' E 011°24'0 0.0
2016-Feb-06 08:32N 58°21' E 011°24'0 0.0
2016-Feb-06 07:32N 58°21' E 011°24'0 0.0
2016-Feb-06 06:32N 58°21' E 011°24'0 0.0
2016-Feb-06 05:32N 58°21' E 011°24'0 0.0
2016-Feb-06 04:32N 58°21' E 011°24'0 0.0
2016-Feb-06 03:32N 58°21' E 011°24'0 0.0
2016-Feb-06 02:32N 58°21' E 011°24'0 0.0
2016-Feb-06 01:32N 58°21' E 011°24'0 0.0
2016-Feb-06 00:32N 58°21' E 011°24'0 0.0
2016-Feb-05 23:29N 58°21' E 011°24'0 0.0
2016-Feb-05 22:32N 58°21' E 011°24'0 0.0
2016-Feb-05 21:32N 58°21' E 011°24'0 0.0
2016-Feb-05 20:32N 58°21' E 011°24'0 0.0
2016-Feb-05 19:32N 58°21' E 011°24'0 0.0
2016-Feb-05 18:32N 58°21' E 011°24'0 0.0
2016-Feb-05 17:32N 58°21' E 011°24'0 0.0
2016-Feb-05 16:32N 58°21' E 011°24'0 0.0
2016-Feb-05 15:32N 58°21' E 011°24'0 0.0
2016-Feb-05 14:32N 58°21' E 011°24'0 0.0
2016-Feb-05 13:32N 58°21' E 011°24'0 0.0
2016-Feb-05 12:32N 58°21' E 011°24'0 0.0
2016-Feb-05 11:32N 58°21' E 011°24'0 0.3
2016-Feb-05 10:33N 58°21' E 011°24'6 5.8
2016-Feb-05 09:33N 58°17' E 011°16'9 9.3
2016-Feb-05 08:33N 58°09' E 011°06'1211.6
2016-Feb-05 07:33N 57°58' E 010°59'1312.5
2016-Feb-05 06:33N 57°46' E 010°51'1211.6
2016-Feb-05 05:33N 57°38' E 011°06'1313.4
2016-Feb-05 04:33N 57°29' E 011°24'1313.2
2016-Feb-05 03:33N 57°17' E 011°33'1413.5
2016-Feb-05 02:33N 57°04' E 011°41'1413.4
2016-Feb-05 01:33N 56°51' E 011°50'1211.7
2016-Feb-05 00:33N 56°39' E 011°48'8511.8
2016-Feb-04 17:23N 55°19' E 011°03'910.6
2016-Feb-04 16:34N 55°10' E 011°01'1212.4
2016-Feb-04 15:33N 54°58' E 010°57'1211.7
2016-Feb-04 14:34N 54°47' E 010°49'1010.2
2016-Feb-04 13:33N 54°37' E 010°56'1211.5
2016-Feb-04 12:33N 54°34' E 011°16'1212.2
2016-Feb-04 11:34N 54°29' E 011°35'1212.3
2016-Feb-04 10:33N 54°27' E 011°55'1010.2
2016-Feb-04 09:33N 54°29' E 012°13'8 8.3
2016-Feb-04 08:33N 54°37' E 012°17'9 8.6
2016-Feb-04 07:33N 54°41' E 012°29'4511.0
2016-Feb-04 03:27N 54°59' E 013°41'1112.4
2016-Feb-04 02:34N 55°03' E 013°59'1212.0
2016-Feb-04 01:34N 55°12' E 014°14'1312.5
2016-Feb-04 00:33N 55°22' E 014°27'1212.3
2016-Feb-03 23:34N 55°29' E 014°44'1212.3
2016-Feb-03 22:34N 55°34' E 015°04'36211.3
2016-Feb-02 14:30N 59°38' E 023°24'1212.3
2016-Feb-02 13:32N 59°42' E 023°46'8811.0
2016-Feb-02 05:33N 60°01' E 026°36'3611.3
2016-Feb-02 02:22N 60°12' E 027°45'1212.3
2016-Feb-02 01:23N 60°09' E 028°09'1012.3
2016-Feb-02 00:33N 60°04' E 028°27'9 8.9
2016-Feb-01 23:33N 59°56' E 028°35'1010.0
2016-Feb-01 22:33N 59°48' E 028°25'5 5.3
2016-Feb-01 21:32N 59°42' E 028°26'0 0.0
2016-Feb-01 20:20N 59°42' E 028°26'0 0.0
2016-Feb-01 19:32N 59°42' E 028°26'0 0.0
2016-Feb-01 18:32N 59°42' E 028°26'0 0.0
2016-Feb-01 17:20N 59°42' E 028°26'0 0.0
2016-Feb-01 16:26N 59°42' E 028°26'0 0.0
2016-Feb-01 15:26N 59°42' E 028°26'0 0.0
2016-Feb-01 14:26N 59°42' E 028°26'0 0.0
2016-Feb-01 13:29N 59°42' E 028°26'0 0.0
2016-Feb-01 12:29N 59°42' E 028°26'0 0.0
2016-Feb-01 11:29N 59°42' E 028°26'0 0.0
2016-Feb-01 10:32N 59°42' E 028°26'0 0.0
2016-Feb-01 09:32N 59°42' E 028°26'0 0.0
2016-Feb-01 08:29N 59°42' E 028°26'0 0.0
2016-Feb-01 07:32N 59°42' E 028°26'0 0.0
2016-Feb-01 06:32N 59°42' E 028°26'0 0.0
2016-Feb-01 05:32N 59°42' E 028°26'0 0.0
2016-Feb-01 04:32N 59°42' E 028°26'0 0.0
2016-Feb-01 03:23N 59°42' E 028°26'0 0.0
2016-Feb-01 02:26N 59°42' E 028°26'0 0.0
2016-Feb-01 01:26N 59°42' E 028°26'0 0.0
2016-Feb-01 00:26N 59°42' E 028°26'0 0.0
2016-Jan-31 23:29N 59°42' E 028°26'0 0.0
2016-Jan-31 22:29N 59°42' E 028°26'0 0.0
2016-Jan-31 21:29N 59°42' E 028°26'  

Dump ship's entire track history